sensor_id;sensor_type;location;lat;lon;timestamp;pressure;altitude;pressure_sealevel;temperature;humidity
26859;BME280;14429;48.346;16.338;2023-02-08T00:01:57;102169.50;;;9.40;43.39
26859;BME280;14429;48.346;16.338;2023-02-08T00:04:22;102180.47;;;9.28;43.87
26859;BME280;14429;48.346;16.338;2023-02-08T00:06:47;102185.03;;;9.57;43.20
26859;BME280;14429;48.346;16.338;2023-02-08T00:09:13;102186.09;;;9.50;43.26
26859;BME280;14429;48.346;16.338;2023-02-08T00:11:40;102181.84;;;9.43;43.48
26859;BME280;14429;48.346;16.338;2023-02-08T00:14:05;102181.75;;;9.46;43.46
26859;BME280;14429;48.346;16.338;2023-02-08T00:16:31;102192.84;;;9.29;43.82
26859;BME280;14429;48.346;16.338;2023-02-08T00:18:56;102189.75;;;9.46;43.47
26859;BME280;14429;48.346;16.338;2023-02-08T00:21:22;102193.50;;;9.38;43.62
26859;BME280;14429;48.346;16.338;2023-02-08T00:23:47;102195.22;;;9.41;43.80
26859;BME280;14429;48.346;16.338;2023-02-08T00:26:13;102187.16;;;9.43;43.51
26859;BME280;14429;48.346;16.338;2023-02-08T00:28:40;102177.78;;;9.28;43.75
26859;BME280;14429;48.346;16.338;2023-02-08T00:31:06;102193.34;;;9.44;43.43
26859;BME280;14429;48.346;16.338;2023-02-08T00:33:32;102207.06;;;9.28;43.52
26859;BME280;14429;48.346;16.338;2023-02-08T00:35:58;102199.63;;;9.41;43.72
26859;BME280;14429;48.346;16.338;2023-02-08T00:38:23;102202.44;;;9.36;43.64
26859;BME280;14429;48.346;16.338;2023-02-08T00:40:49;102199.28;;;9.20;43.94
26859;BME280;14429;48.346;16.338;2023-02-08T00:43:14;102196.06;;;9.42;43.59
26859;BME280;14429;48.346;16.338;2023-02-08T00:45:41;102193.59;;;9.34;43.41
26859;BME280;14429;48.346;16.338;2023-02-08T00:48:06;102186.28;;;9.43;43.66
26859;BME280;14429;48.346;16.338;2023-02-08T00:50:32;102182.84;;;9.38;43.40
26859;BME280;14429;48.346;16.338;2023-02-08T00:52:57;102185.66;;;9.32;43.58
26859;BME280;14429;48.346;16.338;2023-02-08T00:55:23;102180.16;;;9.40;43.40
26859;BME280;14429;48.346;16.338;2023-02-08T00:57:48;102187.41;;;9.35;43.73
26859;BME280;14429;48.346;16.338;2023-02-08T01:00:14;102187.09;;;9.46;43.18
26859;BME280;14429;48.346;16.338;2023-02-08T01:02:41;102183.63;;;9.41;43.27
26859;BME280;14429;48.346;16.338;2023-02-08T01:05:06;102190.00;;;9.36;43.42
26859;BME280;14429;48.346;16.338;2023-02-08T01:07:32;102190.75;;;9.42;43.25
26859;BME280;14429;48.346;16.338;2023-02-08T01:09:59;102198.03;;;9.35;43.59
26859;BME280;14429;48.346;16.338;2023-02-08T01:12:25;102199.53;;;9.44;43.30
26859;BME280;14429;48.346;16.338;2023-02-08T01:14:50;102191.91;;;9.31;43.60
26859;BME280;14429;48.346;16.338;2023-02-08T01:17:15;102194.66;;;9.27;43.82
26859;BME280;14429;48.346;16.338;2023-02-08T01:19:42;102206.09;;;9.30;43.59
26859;BME280;14429;48.346;16.338;2023-02-08T01:22:09;102203.63;;;9.23;43.89
26859;BME280;14429;48.346;16.338;2023-02-08T01:24:34;102208.59;;;9.38;43.73
26859;BME280;14429;48.346;16.338;2023-02-08T01:26:59;102204.41;;;9.28;43.58
26859;BME280;14429;48.346;16.338;2023-02-08T01:29:25;102205.03;;;9.39;43.34
26859;BME280;14429;48.346;16.338;2023-02-08T01:31:50;102201.53;;;9.37;43.52
26859;BME280;14429;48.346;16.338;2023-02-08T01:34:16;102212.41;;;9.28;43.52
26859;BME280;14429;48.346;16.338;2023-02-08T01:36:42;102205.91;;;9.39;43.28
26859;BME280;14429;48.346;16.338;2023-02-08T01:39:09;102207.16;;;9.25;43.83
26859;BME280;14429;48.346;16.338;2023-02-08T01:41:39;102201.53;;;9.37;43.47
26859;BME280;14429;48.346;16.338;2023-02-08T01:44:08;102214.00;;;9.35;43.45
26859;BME280;14429;48.346;16.338;2023-02-08T01:46:52;102209.63;;;9.31;43.68
26859;BME280;14429;48.346;16.338;2023-02-08T01:49:22;102218.53;;;9.31;43.72
26859;BME280;14429;48.346;16.338;2023-02-08T01:51:52;102211.59;;;9.24;43.76
26859;BME280;14429;48.346;16.338;2023-02-08T01:54:21;102214.91;;;9.34;43.57
26859;BME280;14429;48.346;16.338;2023-02-08T01:56:48;102219.53;;;9.26;43.42
26859;BME280;14429;48.346;16.338;2023-02-08T01:59:16;102218.53;;;9.30;43.63
26859;BME280;14429;48.346;16.338;2023-02-08T02:01:45;102220.47;;;9.23;43.60
26859;BME280;14429;48.346;16.338;2023-02-08T02:04:12;102214.38;;;9.20;43.74
26859;BME280;14429;48.346;16.338;2023-02-08T02:06:40;102210.50;;;9.33;43.49
26859;BME280;14429;48.346;16.338;2023-02-08T02:09:14;102205.31;;;9.27;43.65
26859;BME280;14429;48.346;16.338;2023-02-08T02:11:42;102196.19;;;9.37;43.54
26859;BME280;14429;48.346;16.338;2023-02-08T02:14:08;102199.91;;;9.30;43.52
26859;BME280;14429;48.346;16.338;2023-02-08T02:16:33;102214.22;;;9.26;43.50
26859;BME280;14429;48.346;16.338;2023-02-08T02:18:59;102215.94;;;9.27;43.62
26859;BME280;14429;48.346;16.338;2023-02-08T02:21:34;102203.75;;;9.18;43.69
26859;BME280;14429;48.346;16.338;2023-02-08T02:24:20;102212.31;;;9.31;43.55
26859;BME280;14429;48.346;16.338;2023-02-08T02:30:00;102226.88;;;9.15;43.77
26859;BME280;14429;48.346;16.338;2023-02-08T02:32:42;102229.78;;;9.05;44.08
26859;BME280;14429;48.346;16.338;2023-02-08T02:35:15;102232.66;;;9.33;43.58
26859;BME280;14429;48.346;16.338;2023-02-08T02:37:48;102225.03;;;9.18;43.83
26859;BME280;14429;48.346;16.338;2023-02-08T02:40:20;102221.38;;;9.24;43.62
26859;BME280;14429;48.346;16.338;2023-02-08T02:42:58;102224.66;;;9.35;43.35
26859;BME280;14429;48.346;16.338;2023-02-08T02:45:31;102217.91;;;9.19;43.68
26859;BME280;14429;48.346;16.338;2023-02-08T02:48:05;102220.13;;;9.38;43.07
26859;BME280;14429;48.346;16.338;2023-02-08T02:50:36;102225.00;;;9.20;43.51
26859;BME280;14429;48.346;16.338;2023-02-08T02:53:06;102234.50;;;9.31;43.53
26859;BME280;14429;48.346;16.338;2023-02-08T02:55:41;102224.09;;;9.21;43.39
26859;BME280;14429;48.346;16.338;2023-02-08T02:58:09;102216.94;;;9.23;43.51
26859;BME280;14429;48.346;16.338;2023-02-08T03:00:36;102233.69;;;9.28;43.30
26859;BME280;14429;48.346;16.338;2023-02-08T03:03:03;102227.56;;;9.23;43.33
26859;BME280;14429;48.346;16.338;2023-02-08T03:05:29;102228.22;;;9.34;43.30
26859;BME280;14429;48.346;16.338;2023-02-08T03:08:13;102225.03;;;9.18;43.43
26859;BME280;14429;48.346;16.338;2023-02-08T03:10:55;102222.94;;;9.31;43.29
26859;BME280;14429;48.346;16.338;2023-02-08T03:13:42;102223.25;;;9.19;43.66
26859;BME280;14429;48.346;16.338;2023-02-08T03:16:15;102229.31;;;9.25;43.57
26859;BME280;14429;48.346;16.338;2023-02-08T03:18:52;102225.00;;;9.20;43.39
26859;BME280;14429;48.346;16.338;2023-02-08T03:21:31;102225.13;;;9.14;43.61
26859;BME280;14429;48.346;16.338;2023-02-08T03:24:07;102221.28;;;9.27;43.39
26859;BME280;14429;48.346;16.338;2023-02-08T03:26:37;102222.53;;;9.13;43.71
26859;BME280;14429;48.346;16.338;2023-02-08T03:29:11;102226.75;;;9.21;43.33
26859;BME280;14429;48.346;16.338;2023-02-08T03:31:44;102224.38;;;9.09;43.54
26859;BME280;14429;48.346;16.338;2023-02-08T03:34:15;102225.78;;;9.23;43.42
26859;BME280;14429;48.346;16.338;2023-02-08T03:36:46;102227.75;;;9.15;43.59
26859;BME280;14429;48.346;16.338;2023-02-08T03:39:17;102225.25;;;9.08;43.77
26859;BME280;14429;48.346;16.338;2023-02-08T03:41:45;102235.50;;;9.26;43.50
26859;BME280;14429;48.346;16.338;2023-02-08T03:44:15;102226.06;;;9.12;43.69
26859;BME280;14429;48.346;16.338;2023-02-08T03:46:45;102239.91;;;9.27;43.33
26859;BME280;14429;48.346;16.338;2023-02-08T03:49:17;102240.97;;;9.20;43.56
26859;BME280;14429;48.346;16.338;2023-02-08T03:51:45;102236.31;;;9.29;43.27
26859;BME280;14429;48.346;16.338;2023-02-08T03:54:14;102238.91;;;9.31;42.94
26859;BME280;14429;48.346;16.338;2023-02-08T03:56:44;102240.97;;;9.20;43.17
26859;BME280;14429;48.346;16.338;2023-02-08T03:59:14;102235.25;;;9.36;43.06
26859;BME280;14429;48.346;16.338;2023-02-08T04:01:43;102244.47;;;9.22;43.00
26859;BME280;14429;48.346;16.338;2023-02-08T04:04:11;102244.19;;;9.34;43.15
26859;BME280;14429;48.346;16.338;2023-02-08T04:06:39;102252.50;;;9.20;43.08
26859;BME280;14429;48.346;16.338;2023-02-08T04:09:05;102254.34;;;9.17;43.45
26859;BME280;14429;48.346;16.338;2023-02-08T04:11:30;102253.38;;;9.21;42.28
26859;BME280;14429;48.346;16.338;2023-02-08T04:13:56;102241.97;;;9.14;43.16
26859;BME280;14429;48.346;16.338;2023-02-08T04:16:21;102228.38;;;9.26;43.26
26859;BME280;14429;48.346;16.338;2023-02-08T04:18:46;102243.66;;;9.18;43.06
26859;BME280;14429;48.346;16.338;2023-02-08T04:21:12;102243.53;;;9.24;43.27
26859;BME280;14429;48.346;16.338;2023-02-08T04:23:39;102236.41;;;9.25;42.93
26859;BME280;14429;48.346;16.338;2023-02-08T04:26:04;102238.44;;;9.14;43.46
26859;BME280;14429;48.346;16.338;2023-02-08T04:28:30;102233.53;;;9.34;42.97
26859;BME280;14429;48.346;16.338;2023-02-08T04:30:55;102231.28;;;9.17;43.31
26859;BME280;14429;48.346;16.338;2023-02-08T04:33:20;102231.91;;;9.27;42.93
26859;BME280;14429;48.346;16.338;2023-02-08T04:35:46;102237.69;;;9.09;43.52
26859;BME280;14429;48.346;16.338;2023-02-08T04:38:12;102238.13;;;8.88;43.66
26859;BME280;14429;48.346;16.338;2023-02-08T04:40:38;102243.00;;;9.09;43.32
26859;BME280;14429;48.346;16.338;2023-02-08T04:43:04;102239.53;;;9.04;43.65
26859;BME280;14429;48.346;16.338;2023-02-08T04:45:29;102237.47;;;9.18;43.09
26859;BME280;14429;48.346;16.338;2023-02-08T04:47:55;102234.94;;;9.12;43.27
26859;BME280;14429;48.346;16.338;2023-02-08T04:50:20;102234.00;;;9.14;43.33
26859;BME280;14429;48.346;16.338;2023-02-08T04:52:45;102236.53;;;9.19;43.20
26859;BME280;14429;48.346;16.338;2023-02-08T04:55:11;102237.75;;;9.05;43.29
26859;BME280;14429;48.346;16.338;2023-02-08T04:57:38;102242.78;;;9.18;43.06
26859;BME280;14429;48.346;16.338;2023-02-08T05:00:04;102241.16;;;9.11;43.49
26859;BME280;14429;48.346;16.338;2023-02-08T05:02:30;102249.72;;;9.25;42.75
26859;BME280;14429;48.346;16.338;2023-02-08T05:04:55;102253.31;;;9.22;42.92
26859;BME280;14429;48.346;16.338;2023-02-08T05:07:21;102239.31;;;9.16;43.27
26859;BME280;14429;48.346;16.338;2023-02-08T05:09:46;102242.38;;;9.36;42.84
26859;BME280;14429;48.346;16.338;2023-02-08T05:12:12;102236.69;;;9.13;43.10
26859;BME280;14429;48.346;16.338;2023-02-08T05:14:39;102240.81;;;9.27;42.73
26859;BME280;14429;48.346;16.338;2023-02-08T05:17:04;102240.03;;;9.22;42.75
26859;BME280;14429;48.346;16.338;2023-02-08T05:19:29;102244.69;;;9.13;43.19
26859;BME280;14429;48.346;16.338;2023-02-08T05:21:55;102242.66;;;9.24;42.89
26859;BME280;14429;48.346;16.338;2023-02-08T05:24:21;102255.41;;;9.10;43.22
26859;BME280;14429;48.346;16.338;2023-02-08T05:26:46;102253.22;;;9.27;42.60
26859;BME280;14429;48.346;16.338;2023-02-08T05:29:12;102252.56;;;9.17;43.09
26859;BME280;14429;48.346;16.338;2023-02-08T05:31:39;102254.31;;;9.18;43.03
26859;BME280;14429;48.346;16.338;2023-02-08T05:34:04;102264.94;;;9.20;42.89
26859;BME280;14429;48.346;16.338;2023-02-08T05:36:29;102271.25;;;9.16;42.89
26859;BME280;14429;48.346;16.338;2023-02-08T05:38:55;102263.75;;;9.33;42.54
26859;BME280;14429;48.346;16.338;2023-02-08T05:41:20;102266.63;;;9.24;42.70
26859;BME280;14429;48.346;16.338;2023-02-08T05:43:46;102267.44;;;9.26;42.57
26859;BME280;14429;48.346;16.338;2023-02-08T05:46:12;102270.16;;;9.23;42.62
26859;BME280;14429;48.346;16.338;2023-02-08T05:48:39;102267.69;;;9.15;43.01
26859;BME280;14429;48.346;16.338;2023-02-08T05:51:04;102270.97;;;9.28;42.59
26859;BME280;14429;48.346;16.338;2023-02-08T05:53:30;102285.44;;;9.15;42.76
26859;BME280;14429;48.346;16.338;2023-02-08T05:55:56;102292.25;;;9.28;42.76
26859;BME280;14429;48.346;16.338;2023-02-08T05:58:21;102298.69;;;9.18;42.66
26859;BME280;14429;48.346;16.338;2023-02-08T06:00:47;102288.09;;;9.16;42.71
26859;BME280;14429;48.346;16.338;2023-02-08T06:03:12;102294.88;;;9.29;42.32
26859;BME280;14429;48.346;16.338;2023-02-08T06:05:39;102289.06;;;9.13;42.94
26859;BME280;14429;48.346;16.338;2023-02-08T06:08:05;102303.84;;;9.25;42.71
26859;BME280;14429;48.346;16.338;2023-02-08T06:10:31;102302.41;;;9.10;42.79
26859;BME280;14429;48.346;16.338;2023-02-08T06:12:56;102294.34;;;9.14;42.93
26859;BME280;14429;48.346;16.338;2023-02-08T06:15:22;102299.72;;;9.11;42.76
26859;BME280;14429;48.346;16.338;2023-02-08T06:17:47;102298.19;;;9.01;43.27
26859;BME280;14429;48.346;16.338;2023-02-08T06:20:13;102301.28;;;9.19;42.92
26859;BME280;14429;48.346;16.338;2023-02-08T06:22:39;102310.41;;;9.08;42.83
26859;BME280;14429;48.346;16.338;2023-02-08T06:25:05;102304.06;;;9.15;42.70
26859;BME280;14429;48.346;16.338;2023-02-08T06:27:31;102312.25;;;9.06;42.79
26859;BME280;14429;48.346;16.338;2023-02-08T06:29:56;102323.06;;;8.97;42.93
26859;BME280;14429;48.346;16.338;2023-02-08T06:32:22;102318.59;;;8.99;43.14
26859;BME280;14429;48.346;16.338;2023-02-08T06:34:47;102325.00;;;8.89;43.47
26859;BME280;14429;48.346;16.338;2023-02-08T06:37:13;102329.97;;;9.07;42.79
26859;BME280;14429;48.346;16.338;2023-02-08T06:39:39;102326.63;;;8.96;43.19
26859;BME280;14429;48.346;16.338;2023-02-08T06:42:05;102327.41;;;9.03;42.91
26859;BME280;14429;48.346;16.338;2023-02-08T06:44:30;102330.94;;;9.03;43.04
26859;BME280;14429;48.346;16.338;2023-02-08T06:46:56;102324.94;;;8.92;43.01
26859;BME280;14429;48.346;16.338;2023-02-08T06:49:21;102328.16;;;9.09;42.62
26859;BME280;14429;48.346;16.338;2023-02-08T06:51:46;102319.47;;;9.01;42.85
26859;BME280;14429;48.346;16.338;2023-02-08T06:54:12;102323.72;;;9.10;42.79
26859;BME280;14429;48.346;16.338;2023-02-08T06:56:39;102312.19;;;9.09;42.85
26859;BME280;14429;48.346;16.338;2023-02-08T06:59:04;102319.38;;;9.04;42.74
26859;BME280;14429;48.346;16.338;2023-02-08T07:01:30;102315.63;;;9.14;42.56
26859;BME280;14429;48.346;16.338;2023-02-08T07:03:55;102312.31;;;9.03;42.58
26859;BME280;14429;48.346;16.338;2023-02-08T07:06:21;102314.69;;;9.16;42.67
26859;BME280;14429;48.346;16.338;2023-02-08T07:08:47;102307.84;;;9.05;42.92
26859;BME280;14429;48.346;16.338;2023-02-08T07:11:14;102300.69;;;9.09;42.77
26859;BME280;14429;48.346;16.338;2023-02-08T07:13:41;102299.91;;;9.02;42.77
26859;BME280;14429;48.346;16.338;2023-02-08T07:16:08;102309.13;;;8.87;43.26
26859;BME280;14429;48.346;16.338;2023-02-08T07:18:34;102312.19;;;9.09;42.93
26859;BME280;14429;48.346;16.338;2023-02-08T07:20:59;102301.72;;;8.11;36.75
26859;BME280;14429;48.346;16.338;2023-02-08T07:23:25;102309.19;;;8.84;43.20
26859;BME280;14429;48.346;16.338;2023-02-08T07:25:57;102305.16;;;7.62;39.42
26859;BME280;14429;48.346;16.338;2023-02-08T07:28:23;102313.16;;;8.62;44.00
26859;BME280;14429;48.346;16.338;2023-02-08T07:30:50;102317.28;;;8.78;43.30
26859;BME280;14429;48.346;16.338;2023-02-08T07:33:15;102318.13;;;8.80;43.56
26859;BME280;14429;48.346;16.338;2023-02-08T07:35:41;102339.81;;;6.04;38.08
26859;BME280;14429;48.346;16.338;2023-02-08T07:38:06;102345.66;;;5.09;48.37
26859;BME280;14429;48.346;16.338;2023-02-08T07:40:31;102354.66;;;6.22;49.82
26859;BME280;14429;48.346;16.338;2023-02-08T07:42:57;102352.59;;;7.26;47.38
26859;BME280;14429;48.346;16.338;2023-02-08T07:45:22;102356.84;;;6.65;47.99
26859;BME280;14429;48.346;16.338;2023-02-08T07:47:49;102334.47;;;6.90;43.47
26859;BME280;14429;48.346;16.338;2023-02-08T07:50:15;102340.53;;;7.63;46.50
26859;BME280;14429;48.346;16.338;2023-02-08T07:52:40;102332.31;;;8.33;44.80
26859;BME280;14429;48.346;16.338;2023-02-08T07:55:07;102332.97;;;8.46;44.28
26859;BME280;14429;48.346;16.338;2023-02-08T07:57:32;102343.75;;;8.37;44.53
26859;BME280;14429;48.346;16.338;2023-02-08T07:59:57;102350.34;;;8.65;43.83
26859;BME280;14429;48.346;16.338;2023-02-08T08:02:23;102337.88;;;8.67;43.87
26859;BME280;14429;48.346;16.338;2023-02-08T08:04:50;102326.06;;;8.81;43.93
26859;BME280;14429;48.346;16.338;2023-02-08T08:07:15;102338.75;;;8.69;44.00
26859;BME280;14429;48.346;16.338;2023-02-08T08:09:40;102334.03;;;8.83;43.81
26859;BME280;14429;48.346;16.338;2023-02-08T08:12:06;102353.09;;;8.61;43.49
26859;BME280;14429;48.346;16.338;2023-02-08T08:14:31;102350.50;;;8.04;42.18
26859;BME280;14429;48.346;16.338;2023-02-08T08:16:57;102356.00;;;7.92;39.99
26859;BME280;14429;48.346;16.338;2023-02-08T08:19:22;102344.16;;;8.64;44.14
26859;BME280;14429;48.346;16.338;2023-02-08T08:21:49;102342.25;;;9.14;43.16
26859;BME280;14429;48.346;16.338;2023-02-08T08:24:14;102339.31;;;9.26;42.50
26859;BME280;14429;48.346;16.338;2023-02-08T08:26:40;102342.72;;;9.32;42.29
26859;BME280;14429;48.346;16.338;2023-02-08T08:29:05;102339.09;;;9.36;42.44
26859;BME280;14429;48.346;16.338;2023-02-08T08:31:31;102338.94;;;9.42;42.27
26859;BME280;14429;48.346;16.338;2023-02-08T08:33:56;102342.06;;;9.60;41.76
26859;BME280;14429;48.346;16.338;2023-02-08T08:36:21;102342.00;;;9.63;41.84
26859;BME280;14429;48.346;16.338;2023-02-08T08:38:48;102347.09;;;9.73;41.43
26859;BME280;14429;48.346;16.338;2023-02-08T08:41:15;102349.50;;;8.14;37.00
26859;BME280;14429;48.346;16.338;2023-02-08T08:43:41;102344.63;;;7.84;37.11
26859;BME280;14429;48.346;16.338;2023-02-08T08:46:06;102352.09;;;8.66;43.47
26859;BME280;14429;48.346;16.338;2023-02-08T08:48:33;102346.94;;;9.00;42.93
26859;BME280;14429;48.346;16.338;2023-02-08T08:50:58;102346.31;;;9.30;42.55
26859;BME280;14429;48.346;16.338;2023-02-08T08:53:23;102346.91;;;9.43;42.03
26859;BME280;14429;48.346;16.338;2023-02-08T08:55:50;102341.97;;;9.26;42.13
26859;BME280;14429;48.346;16.338;2023-02-08T08:58:16;102338.78;;;9.49;42.26
26859;BME280;14429;48.346;16.338;2023-02-08T09:00:41;102330.78;;;9.49;42.17
26859;BME280;14429;48.346;16.338;2023-02-08T09:03:07;102330.72;;;9.54;42.27
26859;BME280;14429;48.346;16.338;2023-02-08T09:05:33;102337.41;;;9.32;39.72
26859;BME280;14429;48.346;16.338;2023-02-08T09:07:59;102342.34;;;9.48;42.08
26859;BME280;14429;48.346;16.338;2023-02-08T09:10:24;102338.53;;;9.60;42.02
26859;BME280;14429;48.346;16.338;2023-02-08T09:12:51;102341.00;;;9.30;42.09
26859;BME280;14429;48.346;16.338;2023-02-08T09:15:16;102362.94;;;9.41;42.24
26859;BME280;14429;48.346;16.338;2023-02-08T09:17:42;102358.63;;;8.93;38.89
26859;BME280;14429;48.346;16.338;2023-02-08T09:20:08;102365.47;;;9.06;42.93
26859;BME280;14429;48.346;16.338;2023-02-08T09:22:34;102388.63;;;8.00;43.11
26859;BME280;14429;48.346;16.338;2023-02-08T09:24:59;102367.84;;;8.29;44.58
26859;BME280;14429;48.346;16.338;2023-02-08T09:27:24;102364.59;;;8.10;40.13
26859;BME280;14429;48.346;16.338;2023-02-08T09:29:51;102385.78;;;7.57;41.23
26859;BME280;14429;48.346;16.338;2023-02-08T09:32:17;102388.72;;;7.97;45.58
26859;BME280;14429;48.346;16.338;2023-02-08T09:34:42;102385.19;;;8.49;44.88
26859;BME280;14429;48.346;16.338;2023-02-08T09:37:08;102396.94;;;7.79;45.26
26859;BME280;14429;48.346;16.338;2023-02-08T09:39:33;102378.50;;;8.75;44.23
26859;BME280;14429;48.346;16.338;2023-02-08T09:42:12;102392.19;;;7.99;40.12
26859;BME280;14429;48.346;16.338;2023-02-08T09:44:44;102384.44;;;8.90;43.79
26859;BME280;14429;48.346;16.338;2023-02-08T09:47:16;102376.28;;;8.97;43.49
26859;BME280;14429;48.346;16.338;2023-02-08T09:49:50;102387.44;;;9.15;43.39
26859;BME280;14429;48.346;16.338;2023-02-08T09:52:23;102380.88;;;9.33;42.57
26859;BME280;14429;48.346;16.338;2023-02-08T09:54:53;102378.44;;;9.22;42.95
26859;BME280;14429;48.346;16.338;2023-02-08T09:57:23;102366.53;;;9.40;42.65
26859;BME280;14429;48.346;16.338;2023-02-08T09:59:55;102369.09;;;9.01;41.67
26859;BME280;14429;48.346;16.338;2023-02-08T10:02:25;102394.78;;;8.08;42.27
26859;BME280;14429;48.346;16.338;2023-02-08T10:04:57;102386.75;;;8.61;44.27
26859;BME280;14429;48.346;16.338;2023-02-08T10:07:25;102401.09;;;7.97;39.34
26859;BME280;14429;48.346;16.338;2023-02-08T10:09:52;102390.19;;;9.11;43.45
26859;BME280;14429;48.346;16.338;2023-02-08T10:12:23;102397.34;;;9.09;43.44
26859;BME280;14429;48.346;16.338;2023-02-08T10:15:00;102390.66;;;9.32;42.84
26859;BME280;14429;48.346;16.338;2023-02-08T10:17:41;102400.22;;;7.35;40.36
26859;BME280;14429;48.346;16.338;2023-02-08T10:20:18;102399.56;;;8.87;43.98
26859;BME280;14429;48.346;16.338;2023-02-08T10:22:56;102386.81;;;9.03;43.71
26859;BME280;14429;48.346;16.338;2023-02-08T10:25:37;102388.16;;;9.23;43.20
26859;BME280;14429;48.346;16.338;2023-02-08T10:28:19;102388.00;;;9.31;42.82
26859;BME280;14429;48.346;16.338;2023-02-08T10:30:54;102379.19;;;9.29;43.04
26859;BME280;14429;48.346;16.338;2023-02-08T10:33:26;102386.75;;;9.06;43.49
26859;BME280;14429;48.346;16.338;2023-02-08T10:35:54;102375.19;;;9.09;43.57
26859;BME280;14429;48.346;16.338;2023-02-08T10:38:23;102364.63;;;9.44;42.72
26859;BME280;14429;48.346;16.338;2023-02-08T10:40:51;102365.00;;;9.27;43.00
26859;BME280;14429;48.346;16.338;2023-02-08T10:43:23;102377.47;;;9.26;43.24
26859;BME280;14429;48.346;16.338;2023-02-08T10:45:54;102377.19;;;9.40;42.88
26859;BME280;14429;48.346;16.338;2023-02-08T10:48:30;102375.50;;;8.94;42.73
26859;BME280;14429;48.346;16.338;2023-02-08T10:50:59;102367.22;;;9.09;43.28
26859;BME280;14429;48.346;16.338;2023-02-08T10:53:24;102374.13;;;9.17;43.32
26859;BME280;14429;48.346;16.338;2023-02-08T10:55:49;102364.97;;;9.30;43.13
26859;BME280;14429;48.346;16.338;2023-02-08T10:58:17;102369.50;;;8.35;43.88
26859;BME280;14429;48.346;16.338;2023-02-08T11:00:43;102376.31;;;7.96;43.45
26859;BME280;14429;48.346;16.338;2023-02-08T11:03:15;102386.16;;;7.90;40.52
26859;BME280;14429;48.346;16.338;2023-02-08T11:05:42;102378.72;;;8.14;41.25
26859;BME280;14429;48.346;16.338;2023-02-08T11:08:10;102366.13;;;8.74;44.31
26859;BME280;14429;48.346;16.338;2023-02-08T11:10:38;102378.72;;;7.56;43.21
26859;BME280;14429;48.346;16.338;2023-02-08T11:13:13;102378.84;;;8.08;45.58
26859;BME280;14429;48.346;16.338;2023-02-08T11:15:43;102368.31;;;8.51;44.70
26859;BME280;14429;48.346;16.338;2023-02-08T11:18:18;102371.28;;;7.79;42.28
26859;BME280;14429;48.346;16.338;2023-02-08T11:20:47;102374.38;;;6.76;39.98
26859;BME280;14429;48.346;16.338;2023-02-08T11:23:20;102376.88;;;6.04;43.11
26859;BME280;14429;48.346;16.338;2023-02-08T11:25:46;102373.41;;;5.96;45.60
26859;BME280;14429;48.346;16.338;2023-02-08T11:28:25;102376.31;;;5.47;45.30
26859;BME280;14429;48.346;16.338;2023-02-08T11:30:58;102371.94;;;5.45;47.90
26859;BME280;14429;48.346;16.338;2023-02-08T11:33:24;102368.56;;;5.13;43.79
26859;BME280;14429;48.346;16.338;2023-02-08T11:35:54;102361.44;;;5.27;50.37
26859;BME280;14429;48.346;16.338;2023-02-08T11:38:20;102368.63;;;4.99;45.56
26859;BME280;14429;48.346;16.338;2023-02-08T11:40:46;102365.13;;;4.97;46.85
26859;BME280;14429;48.346;16.338;2023-02-08T11:43:19;102353.25;;;5.77;46.49
26859;BME280;14429;48.346;16.338;2023-02-08T11:45:45;102354.38;;;5.31;46.60
26859;BME280;14429;48.346;16.338;2023-02-08T11:48:21;102356.94;;;5.45;51.30
26859;BME280;14429;48.346;16.338;2023-02-08T11:50:53;102355.19;;;5.43;44.71
26859;BME280;14429;48.346;16.338;2023-02-08T11:53:24;102337.75;;;5.02;44.92
26859;BME280;14429;48.346;16.338;2023-02-08T11:56:01;102343.50;;;5.82;50.00
26859;BME280;14429;48.346;16.338;2023-02-08T11:58:27;102354.88;;;5.94;48.94
26859;BME280;14429;48.346;16.338;2023-02-08T12:00:58;102350.19;;;4.80;46.12
26859;BME280;14429;48.346;16.338;2023-02-08T12:03:25;102350.16;;;4.93;46.25
26859;BME280;14429;48.346;16.338;2023-02-08T12:06:04;102343.97;;;5.03;48.10
26859;BME280;14429;48.346;16.338;2023-02-08T12:08:38;102340.22;;;5.39;50.11
26859;BME280;14429;48.346;16.338;2023-02-08T12:11:14;102333.28;;;5.23;46.47
26859;BME280;14429;48.346;16.338;2023-02-08T12:16:49;102336.72;;;5.34;47.27
26859;BME280;14429;48.346;16.338;2023-02-08T12:19:34;102340.72;;;5.95;50.08
26859;BME280;14429;48.346;16.338;2023-02-08T12:22:07;102329.44;;;5.68;45.37
26859;BME280;14429;48.346;16.338;2023-02-08T12:24:40;102320.63;;;5.75;46.34
26859;BME280;14429;48.346;16.338;2023-02-08T12:27:22;102315.56;;;6.45;48.76
26859;BME280;14429;48.346;16.338;2023-02-08T12:29:55;102311.94;;;5.50;47.46
26859;BME280;14429;48.346;16.338;2023-02-08T12:32:42;102308.13;;;6.78;49.74
26859;BME280;14429;48.346;16.338;2023-02-08T12:35:29;102318.16;;;5.43;43.93
26859;BME280;14429;48.346;16.338;2023-02-08T12:38:05;102315.44;;;5.55;43.74
26859;BME280;14429;48.346;16.338;2023-02-08T12:40:42;102311.09;;;5.45;44.32
26859;BME280;14429;48.346;16.338;2023-02-08T12:43:19;102310.16;;;6.54;44.63
26859;BME280;14429;48.346;16.338;2023-02-08T12:45:58;102303.91;;;5.70;43.92
26859;BME280;14429;48.346;16.338;2023-02-08T12:48:40;102294.03;;;5.87;45.87
26859;BME280;14429;48.346;16.338;2023-02-08T12:51:12;102299.34;;;5.84;48.12
26859;BME280;14429;48.346;16.338;2023-02-08T12:53:45;102295.06;;;5.71;44.39
26859;BME280;14429;48.346;16.338;2023-02-08T12:56:16;102298.66;;;6.55;50.10
26859;BME280;14429;48.346;16.338;2023-02-08T12:58:43;102297.75;;;5.63;43.46
26859;BME280;14429;48.346;16.338;2023-02-08T13:01:13;102302.44;;;5.19;43.52
26859;BME280;14429;48.346;16.338;2023-02-08T13:03:44;102296.56;;;4.53;44.48